Time;durP1;ratioP1;P1;durP2;ratioP2;P2;SDS_P1;SDS_P2;PMS_P1;PMS_P2;Temp;Humidity;BMP_temperature;BMP_pressure;BME280_temperature;BME280_humidity;BME280_pressure;Samples;Min_cycle;Max_cycle;Signal;HPM_P1;HPM_P2
2024/01/04 00:01:36;;;;;;;4.57;1.08;;;;;;;8.26;100.00;99047.75;4974685;28;20046;-62
2024/01/04 00:04:01;;;;;;;3.28;0.90;;;;;;;8.21;100.00;99044.47;4978185;28;20383;-61
2024/01/04 00:06:27;;;;;;;1.63;0.60;;;;;;;8.12;100.00;99024.13;4982870;28;20456;-61
2024/01/04 00:08:52;;;;;;;3.03;0.50;;;;;;;8.08;100.00;99041.34;4987512;28;20070;-62
2024/01/04 00:11:17;;;;;;;5.18;0.73;;;;;;;8.06;100.00;99032.00;4973465;28;20069;-60
2024/01/04 00:13:43;;;;;;;5.68;0.75;;;;;;;8.04;100.00;99044.88;4980702;28;20066;-62
2024/01/04 00:16:13;;;;;;;2.58;0.60;;;;;;;8.00;100.00;99049.28;4974613;28;20401;-62
2024/01/04 00:18:38;;;;;;;0.55;0.38;;;;;;;7.98;100.00;99045.88;4982876;28;20505;-62
2024/01/04 00:21:04;;;;;;;1.58;0.45;;;;;;;7.96;100.00;99057.97;4980800;28;20030;-62
2024/01/04 00:23:33;;;;;;;4.28;0.90;;;;;;;7.95;100.00;99063.97;4978756;28;20033;-60
2024/01/04 00:25:58;;;;;;;0.30;0.30;;;;;;;7.94;100.00;99064.03;4979627;28;20145;-58
2024/01/04 00:28:24;;;;;;;5.20;0.80;;;;;;;7.92;100.00;99068.38;4979956;28;20415;-59
2024/01/04 00:30:49;;;;;;;3.50;0.77;;;;;;;7.92;100.00;99081.25;4974193;28;20049;-59
2024/01/04 00:33:14;;;;;;;5.10;0.75;;;;;;;7.93;100.00;99076.03;4977609;28;20046;-59
2024/01/04 00:35:40;;;;;;;3.88;0.70;;;;;;;7.93;100.00;99078.63;4987516;28;20071;-59
2024/01/04 00:38:05;;;;;;;1.83;0.73;;;;;;;7.93;100.00;99081.19;4985663;28;20069;-61
2024/01/04 00:40:30;;;;;;;5.75;0.70;;;;;;;7.94;100.00;99079.47;4981432;28;20066;-59
2024/01/04 00:42:57;;;;;;;2.47;0.70;;;;;;;7.93;100.00;99093.19;4980296;28;20254;-58
2024/01/04 00:45:22;;;;;;;1.85;0.60;;;;;;;7.95;100.00;99092.28;4987567;28;20089;-59
2024/01/04 00:47:48;;;;;;;5.10;1.83;;;;;;;7.94;100.00;99089.75;4982676;28;20027;-62
2024/01/04 00:50:13;;;;;;;2.65;0.82;;;;;;;7.98;100.00;99102.50;4979906;28;20683;-61
2024/01/04 00:52:39;;;;;;;4.22;1.02;;;;;;;7.98;100.00;99105.06;4986176;28;20049;-61
2024/01/04 00:55:04;;;;;;;0.80;0.60;;;;;;;7.98;100.00;99112.78;4978939;28;20039;-62
2024/01/04 00:57:30;;;;;;;3.38;0.82;;;;;;;8.00;100.00;99115.34;4979634;28;20038;-61
2024/01/04 00:59:55;;;;;;;3.95;0.70;;;;;;;8.00;100.00;99108.47;4972108;28;20772;-58
2024/01/04 01:02:20;;;;;;;2.30;0.68;;;;;;;7.99;100.00;99111.06;4982023;28;20037;-59
2024/01/04 01:04:46;;;;;;;3.47;0.60;;;;;;;7.99;100.00;99122.19;4984330;28;20099;-59
2024/01/04 01:07:12;;;;;;;2.35;0.55;;;;;;;7.99;100.00;99127.34;4979270;28;20129;-58
2024/01/04 01:09:37;;;;;;;3.33;0.43;;;;;;;8.01;100.00;99128.16;4984234;28;20060;-58
2024/01/04 01:12:03;;;;;;;1.75;0.60;;;;;;;8.05;100.00;99128.91;4981425;28;20037;-61
2024/01/04 01:14:28;;;;;;;2.63;0.80;;;;;;;8.07;100.00;99132.28;4980124;28;20038;-61
2024/01/04 01:16:53;;;;;;;4.18;0.90;;;;;;;8.09;100.00;99133.13;4982647;28;20043;-61
2024/01/04 01:19:19;;;;;;;3.08;0.82;;;;;;;8.11;100.00;99146.78;4992043;28;20038;-60
2024/01/04 01:21:44;;;;;;;3.55;0.60;;;;;;;8.14;100.00;99143.28;4973854;28;20049;-61
2024/01/04 01:24:10;;;;;;;1.73;0.70;;;;;;;8.15;100.00;99152.72;4982783;28;20042;-60
2024/01/04 01:26:35;;;;;;;1.50;0.90;;;;;;;8.17;100.00;99158.66;4974787;28;20492;-60
2024/01/04 01:29:00;;;;;;;1.55;0.70;;;;;;;8.17;100.00;99162.06;4987468;28;20030;-60
2024/01/04 01:31:26;;;;;;;3.13;0.85;;;;;;;8.20;100.00;99164.56;4984788;28;20039;-61
2024/01/04 01:33:51;;;;;;;3.88;0.73;;;;;;;8.22;100.00;99174.84;4980012;28;20073;-61
2024/01/04 01:36:16;;;;;;;4.22;0.70;;;;;;;8.23;100.00;99171.38;4986928;28;20525;-61
2024/01/04 01:38:42;;;;;;;2.95;0.90;;;;;;;8.24;100.00;99168.78;4978412;28;20678;-61
2024/01/04 01:41:07;;;;;;;5.43;1.10;;;;;;;8.29;100.00;99179.81;4975094;28;20401;-61
2024/01/04 01:43:33;;;;;;;5.60;0.93;;;;;;;8.30;100.00;99183.22;4982990;28;20038;-60
2024/01/04 01:45:58;;;;;;;2.25;0.80;;;;;;;8.34;100.00;99180.53;4977928;28;20476;-60
2024/01/04 01:48:23;;;;;;;13.13;1.10;;;;;;;8.37;100.00;99187.31;4986945;28;20068;-59
2024/01/04 01:50:49;;;;;;;6.70;1.45;;;;;;;8.38;100.00;99187.28;4977819;28;20038;-58
2024/01/04 01:53:16;;;;;;;4.28;1.63;;;;;;;8.41;100.00;99196.66;4982225;28;20180;-58
2024/01/04 01:55:41;;;;;;;6.57;1.20;;;;;;;8.44;100.00;99194.88;4976388;28;20043;-58
2024/01/04 01:58:07;;;;;;;5.53;1.30;;;;;;;8.48;100.00;99196.50;4985291;28;20396;-58
2024/01/04 02:00:33;;;;;;;4.22;1.38;;;;;;;8.51;100.00;99198.16;4977664;28;20072;-58
2024/01/04 02:02:59;;;;;;;5.40;1.30;;;;;;;8.58;100.00;99202.25;4987076;28;20033;-59
2024/01/04 02:05:24;;;;;;;4.32;1.63;;;;;;;8.63;100.00;99217.59;4977123;28;20034;-62
2024/01/04 02:07:50;;;;;;;4.88;1.70;;;;;;;8.71;100.00;99216.50;4980299;28;20037;-60
2024/01/04 02:10:15;;;;;;;4.80;1.95;;;;;;;8.75;100.00;99220.72;4976934;28;20038;-59
2024/01/04 02:12:41;;;;;;;5.65;1.60;;;;;;;8.79;100.00;99226.59;4976808;28;20998;-59
2024/01/04 02:15:07;;;;;;;5.10;2.10;;;;;;;8.82;100.00;99231.69;4980195;28;20693;-58
2024/01/04 02:17:33;;;;;;;3.83;1.75;;;;;;;8.82;100.00;99247.97;4970873;28;20122;-58
2024/01/04 02:19:59;;;;;;;4.80;1.85;;;;;;;8.86;100.00;99247.03;4980424;28;20088;-59
2024/01/04 02:22:24;;;;;;;5.85;1.60;;;;;;;8.88;100.00;99250.41;4986310;28;20038;-59
2024/01/04 02:24:50;;;;;;;5.30;1.60;;;;;;;8.87;100.00;99251.28;4973193;28;20089;-59
2024/01/04 02:27:18;;;;;;;3.95;1.88;;;;;;;8.93;100.00;99274.31;4974800;28;20042;-58
2024/01/04 02:29:43;;;;;;;5.50;1.63;;;;;;;8.95;100.00;99262.25;4981061;28;20038;-58
2024/01/04 02:32:09;;;;;;;6.72;1.60;;;;;;;8.94;100.00;99265.72;4974945;28;20045;-59
2024/01/04 02:34:34;;;;;;;6.22;1.60;;;;;;;8.94;100.00;99270.88;4975232;28;20577;-59
2024/01/04 02:36:59;;;;;;;4.25;1.80;;;;;;;8.95;100.00;99266.56;4980269;28;20034;-58
2024/01/04 02:39:25;;;;;;;6.28;1.80;;;;;;;8.97;100.00;99275.94;4980794;28;20065;-59
2024/01/04 02:41:50;;;;;;;6.38;1.40;;;;;;;8.99;100.00;99286.22;4968008;28;20440;-59
2024/01/04 02:44:15;;;;;;;4.95;1.80;;;;;;;8.99;100.00;99278.50;4982451;28;20030;-58
2024/01/04 02:46:41;;;;;;;3.17;1.48;;;;;;;8.99;100.00;99287.03;4976722;28;20043;-58
2024/01/04 02:49:07;;;;;;;4.80;1.48;;;;;;;8.97;100.00;99293.13;4971371;28;20460;-58
2024/01/04 02:51:32;;;;;;;3.67;1.52;;;;;;;8.93;100.00;99302.66;4983669;28;20042;-59
2024/01/04 02:53:59;;;;;;;4.05;1.30;;;;;;;8.94;100.00;99316.41;4977230;28;20049;-58
2024/01/04 02:56:24;;;;;;;4.53;1.35;;;;;;;8.96;100.00;99315.47;4973839;28;20114;-61
2024/01/04 02:58:50;;;;;;;7.28;1.40;;;;;;;8.97;100.00;99316.31;4979182;28;20399;-62
2024/01/04 03:01:22;;;;;;;5.55;1.77;;;;;;;8.98;100.00;99320.59;4977996;28;20062;-59
2024/01/04 03:03:51;;;;;;;5.40;1.52;;;;;;;8.97;100.00;99324.91;4984353;28;20077;-59
2024/01/04 03:06:25;;;;;;;4.55;1.60;;;;;;;8.96;100.00;99336.09;4984874;28;20042;-59
2024/01/04 03:08:51;;;;;;;3.53;1.27;;;;;;;8.95;100.00;99344.72;4983702;28;20085;-59
2024/01/04 03:11:17;;;;;;;2.47;1.30;;;;;;;8.91;100.00;99344.81;4983813;28;20039;-59
2024/01/04 03:13:43;;;;;;;9.80;2.17;;;;;;;8.92;100.00;99338.78;4988058;28;20046;-60
2024/01/04 03:16:08;;;;;;;3.67;1.70;;;;;;;8.95;100.00;99349.03;4986952;28;20092;-59
2024/01/04 03:18:34;;;;;;;4.03;1.95;;;;;;;8.96;100.00;99341.25;4990206;28;20033;-60
2024/01/04 03:21:01;;;;;;;6.53;1.92;;;;;;;8.95;100.00;99349.03;4991279;28;20037;-59
2024/01/04 03:23:26;;;;;;;7.45;1.80;;;;;;;8.96;100.00;99343.00;4987548;28;20041;-59
2024/01/04 03:25:53;;;;;;;6.70;1.65;;;;;;;8.93;100.00;99350.81;4985800;28;20038;-59
2024/01/04 03:28:19;;;;;;;6.75;1.85;;;;;;;8.92;100.00;99362.84;4981355;28;20525;-59
2024/01/04 03:30:44;;;;;;;7.18;1.88;;;;;;;8.91;100.00;99368.84;4984125;28;20066;-60
2024/01/04 03:33:09;;;;;;;3.65;1.52;;;;;;;8.91;100.00;99363.72;4987439;28;20054;-63
2024/01/04 03:35:34;;;;;;;4.90;1.80;;;;;;;8.86;100.00;99370.72;4986970;28;20756;-62
2024/01/04 03:38:00;;;;;;;2.97;1.40;;;;;;;8.86;100.00;99377.59;4975799;28;20760;-62
2024/01/04 03:40:25;;;;;;;3.97;1.35;;;;;;;8.86;100.00;99378.44;4985325;28;20124;-62
2024/01/04 03:42:51;;;;;;;4.38;1.70;;;;;;;8.86;100.00;99383.59;4986931;28;20494;-61
2024/01/04 03:45:16;;;;;;;6.57;2.00;;;;;;;8.84;100.00;99380.19;4990166;28;20621;-62
2024/01/04 03:47:41;;;;;;;6.95;1.40;;;;;;;8.84;100.00;99387.91;4980791;28;20506;-62
2024/01/04 03:50:07;;;;;;;3.42;1.10;;;;;;;8.84;100.00;99402.56;4979803;28;20058;-62
2024/01/04 03:52:32;;;;;;;6.93;1.50;;;;;;;8.82;100.00;99402.56;4975655;28;20027;-61
2024/01/04 03:54:58;;;;;;;3.03;1.30;;;;;;;8.81;100.00;99408.59;4980711;28;20524;-62
2024/01/04 03:57:23;;;;;;;3.58;1.40;;;;;;;8.78;100.00;99411.28;4983015;28;20049;-62
2024/01/04 03:59:48;;;;;;;5.93;1.65;;;;;;;8.77;100.00;99411.28;4985999;28;20031;-62
2024/01/04 04:02:14;;;;;;;4.78;1.45;;;;;;;8.78;100.00;99408.69;4984491;28;20097;-62
2024/01/04 04:04:39;;;;;;;11.98;2.10;;;;;;;8.84;100.00;99418.81;4980650;28;20042;-62
2024/01/04 04:07:05;;;;;;;4.18;1.90;;;;;;;8.87;100.00;99417.94;4979864;28;20105;-62
2024/01/04 04:09:30;;;;;;;6.07;1.60;;;;;;;8.87;100.00;99428.25;4980830;28;20041;-61
2024/01/04 04:11:55;;;;;;;4.88;2.00;;;;;;;8.89;100.00;99424.75;4981574;28;20665;-62
2024/01/04 04:14:21;;;;;;;7.55;2.10;;;;;;;8.86;100.00;99427.41;4977868;28;20047;-61
2024/01/04 04:16:47;;;;;;;5.32;1.83;;;;;;;8.87;100.00;99433.41;4978490;28;20053;-62
2024/01/04 04:19:12;;;;;;;5.95;1.75;;;;;;;8.87;100.00;99435.97;4980348;28;20418;-62
2024/01/04 04:21:37;;;;;;;8.18;3.03;;;;;;;8.86;100.00;99431.69;4986883;28;20046;-62
2024/01/04 04:24:03;;;;;;;2.45;1.58;;;;;;;8.85;100.00;99438.56;4983687;28;20034;-62
2024/01/04 04:26:29;;;;;;;8.80;2.10;;;;;;;8.87;100.00;99441.94;4976497;28;20030;-61
2024/01/04 04:28:54;;;;;;;6.55;2.20;;;;;;;8.88;100.00;99435.06;4976026;28;20417;-62
2024/01/04 04:31:19;;;;;;;8.38;1.98;;;;;;;8.92;100.00;99441.88;4986502;28;20134;-61
2024/01/04 04:33:46;;;;;;;11.43;2.10;;;;;;;8.92;100.00;99450.44;4980501;28;20187;-62
2024/01/04 04:36:12;;;;;;;7.93;2.08;;;;;;;8.95;100.00;99447.81;4979797;28;20132;-62
2024/01/04 04:38:37;;;;;;;3.00;1.80;;;;;;;9.01;100.00;99449.38;4983830;28;20038;-59
2024/01/04 04:41:04;;;;;;;7.95;2.50;;;;;;;8.99;100.00;99457.13;4986746;28;20029;-62
2024/01/04 04:43:30;;;;;;;9.50;1.85;;;;;;;9.01;100.00;99457.13;4977573;28;20041;-61
2024/01/04 04:45:56;;;;;;;6.55;2.17;;;;;;;9.00;100.00;99458.00;4983371;28;20046;-62
2024/01/04 04:48:22;;;;;;;8.82;1.85;;;;;;;8.99;100.00;99461.47;4983981;28;20046;-63
2024/01/04 04:50:48;;;;;;;4.30;2.20;;;;;;;8.97;100.00;99465.78;4978251;28;20049;-61
2024/01/04 04:53:13;;;;;;;7.22;1.92;;;;;;;8.95;100.00;99473.56;4990913;28;20026;-61
2024/01/04 04:55:39;;;;;;;6.32;1.90;;;;;;;8.92;100.00;99468.47;4981033;28;20458;-63
2024/01/04 04:58:04;;;;;;;8.70;2.13;;;;;;;8.92;100.00;99478.78;4971226;28;20428;-63
2024/01/04 05:00:30;;;;;;;3.97;1.63;;;;;;;8.93;100.00;99479.66;4973985;28;20050;-61
2024/01/04 05:02:55;;;;;;;3.97;1.20;;;;;;;8.85;100.00;99492.69;4972709;28;20041;-61
2024/01/04 05:05:20;;;;;;;1.55;1.00;;;;;;;8.71;100.00;99492.13;4981552;28;20038;-61
2024/01/04 05:07:45;;;;;;;2.78;1.15;;;;;;;8.56;100.00;99501.03;4974782;28;20611;-61
2024/01/04 05:10:11;;;;;;;3.45;1.40;;;;;;;8.44;100.00;99503.84;4977859;28;20073;-62
2024/01/04 05:12:36;;;;;;;5.78;1.15;;;;;;;8.34;100.00;99504.91;4979883;28;20128;-61
2024/01/04 05:15:02;;;;;;;3.60;1.00;;;;;;;8.28;100.00;99504.16;4981556;28;20088;-62
2024/01/04 05:17:27;;;;;;;2.00;0.82;;;;;;;8.21;100.00;99512.91;4977566;28;20124;-62
2024/01/04 05:19:53;;;;;;;2.67;1.00;;;;;;;8.16;100.00;99517.28;4979568;28;20844;-61
2024/01/04 05:22:19;;;;;;;1.92;0.60;;;;;;;8.12;100.00;99525.94;4981648;28;20042;-62
2024/01/04 05:24:44;;;;;;;3.20;1.10;;;;;;;8.09;100.00;99523.41;4974695;28;20567;-62
2024/01/04 05:27:10;;;;;;;3.33;0.85;;;;;;;8.05;100.00;99532.91;4974846;28;20070;-62
2024/01/04 05:29:35;;;;;;;4.00;1.10;;;;;;;8.02;100.00;99522.66;4973286;28;20046;-62
2024/01/04 05:32:02;;;;;;;2.65;0.85;;;;;;;7.99;100.00;99531.28;4977893;28;20067;-61
2024/01/04 05:34:31;;;;;;;4.68;0.85;;;;;;;7.98;100.00;99542.44;4982033;28;20779;-61
2024/01/04 05:36:57;;;;;;;2.88;0.80;;;;;;;7.97;100.00;99539.94;4978558;28;20043;-61
2024/01/04 05:39:22;;;;;;;4.07;0.90;;;;;;;7.94;100.00;99543.41;4974649;28;20081;-61
2024/01/04 05:41:48;;;;;;;2.13;0.93;;;;;;;7.93;100.00;99546.00;4980511;28;20081;-61
2024/01/04 05:44:14;;;;;;;1.20;0.60;;;;;;;7.95;100.00;99557.13;4976762;28;20035;-61
2024/01/04 05:46:40;;;;;;;1.05;0.65;;;;;;;7.91;100.00;99558.91;4967545;28;20606;-61
2024/01/04 05:49:06;;;;;;;1.42;0.57;;;;;;;7.90;100.00;99561.47;4974979;28;20038;-62
2024/01/04 05:51:31;;;;;;;0.88;0.77;;;;;;;7.88;100.00;99558.09;4978970;28;20050;-62
2024/01/04 05:53:57;;;;;;;1.58;0.85;;;;;;;7.84;100.00;99566.72;4978650;28;20851;-61
2024/01/04 05:56:22;;;;;;;1.40;0.73;;;;;;;7.82;100.00;99569.34;4977716;28;20053;-61
2024/01/04 05:58:47;;;;;;;1.15;0.70;;;;;;;7.81;100.00;99571.91;4977015;28;20464;-62
2024/01/04 06:01:14;;;;;;;4.40;0.80;;;;;;;7.82;100.00;99577.06;4975593;28;20046;-62
2024/01/04 06:03:40;;;;;;;1.50;0.63;;;;;;;7.81;100.00;99587.34;4993796;28;20046;-61
2024/01/04 06:06:05;;;;;;;2.67;0.70;;;;;;;7.82;100.00;99578.78;4970679;28;20050;-62
2024/01/04 06:08:30;;;;;;;2.05;0.77;;;;;;;7.82;100.00;99591.63;4979679;28;20779;-61
2024/01/04 06:10:56;;;;;;;1.65;1.00;;;;;;;7.80;100.00;99593.38;4976333;28;20520;-61
2024/01/04 06:13:26;;;;;;;2.95;1.17;;;;;;;7.78;100.00;99597.69;4974230;28;20054;-62
2024/01/04 06:15:54;;;;;;;2.53;1.00;;;;;;;7.78;100.00;99601.13;4979938;28;20072;-61
2024/01/04 06:18:20;;;;;;;1.70;1.08;;;;;;;7.78;100.00;99603.69;4978317;28;20692;-64
2024/01/04 06:20:46;;;;;;;3.00;1.20;;;;;;;7.80;100.00;99612.22;4980123;28;20092;-63
2024/01/04 06:23:12;;;;;;;3.03;1.00;;;;;;;7.82;100.00;99612.22;4978860;28;20588;-60
2024/01/04 06:25:37;;;;;;;2.72;1.60;;;;;;;7.81;100.00;99616.50;4970843;28;20053;-59
2024/01/04 06:28:03;;;;;;;2.72;1.50;;;;;;;7.82;100.00;99617.34;4974271;28;20620;-61
2024/01/04 06:30:28;;;;;;;1.92;1.45;;;;;;;7.82;100.00;99620.78;4975648;28;20140;-61
2024/01/04 06:32:54;;;;;;;5.65;1.80;;;;;;;7.84;100.00;99629.31;4974733;28;20047;-61
2024/01/04 06:35:19;;;;;;;3.47;1.75;;;;;;;7.88;100.00;99636.13;4974722;28;20119;-61
2024/01/04 06:37:44;;;;;;;5.00;1.70;;;;;;;7.91;100.00;99650.66;4978452;28;20045;-61
2024/01/04 06:40:10;;;;;;;3.80;1.63;;;;;;;7.92;100.00;99642.91;4978196;28;20038;-61
2024/01/04 06:42:36;;;;;;;4.82;1.90;;;;;;;7.92;100.00;99645.47;4977470;28;20034;-62
2024/01/04 06:45:05;;;;;;;3.95;2.00;;;;;;;7.93;100.00;99649.75;4973414;28;20046;-61
2024/01/04 06:47:31;;;;;;;5.57;2.17;;;;;;;7.93;100.00;99652.31;4975481;28;20033;-61
2024/01/04 06:49:57;;;;;;;8.38;2.85;;;;;;;7.94;100.00;99655.75;4977485;28;20038;-61
2024/01/04 06:52:22;;;;;;;6.38;2.10;;;;;;;7.92;100.00;99660.09;4973504;28;20038;-61
2024/01/04 06:54:47;;;;;;;6.45;1.98;;;;;;;7.92;100.00;99655.75;4979419;28;20454;-61
2024/01/04 06:57:13;;;;;;;8.35;2.50;;;;;;;7.93;100.00;99665.19;4975348;28;20532;-61
2024/01/04 06:59:38;;;;;;;4.03;2.58;;;;;;;7.92;100.00;99660.91;4969622;28;20037;-62
2024/01/04 07:02:04;;;;;;;3.92;2.03;;;;;;;7.93;100.00;99651.47;4977963;28;20036;-61
2024/01/04 07:04:30;;;;;;;4.97;2.25;;;;;;;7.92;100.00;99654.94;4981765;28;20049;-61
2024/01/04 07:06:56;;;;;;;2.38;1.80;;;;;;;7.91;100.00;99664.38;4978451;28;20046;-61
2024/01/04 07:09:21;;;;;;;7.35;1.95;;;;;;;7.91;100.00;99679.81;4979470;28;20091;-61
2024/01/04 07:11:47;;;;;;;3.58;1.92;;;;;;;7.91;100.00;99674.66;4972645;28;20493;-64
2024/01/04 07:14:12;;;;;;;2.78;2.03;;;;;;;7.92;100.00;99678.09;4975905;28;20092;-61
2024/01/04 07:16:49;;;;;;;5.45;2.10;;;;;;;7.92;100.00;99680.66;4975015;28;20042;-59
2024/01/04 07:19:14;;;;;;;3.65;1.90;;;;;;;7.92;100.00;99690.97;4973007;28;20030;-61
2024/01/04 07:21:41;;;;;;;6.18;2.88;;;;;;;7.92;100.00;99694.34;4984818;28;20042;-59
2024/01/04 07:24:06;;;;;;;5.43;2.35;;;;;;;7.94;100.00;99705.50;4969766;28;20113;-63
2024/01/04 07:26:31;;;;;;;4.13;2.53;;;;;;;7.95;100.00;99707.19;4972558;28;20537;-63
2024/01/04 07:28:57;;;;;;;6.47;2.50;;;;;;;7.94;100.00;99708.06;4972998;28;20690;-63
2024/01/04 07:31:22;;;;;;;5.53;3.42;;;;;;;7.90;100.00;99705.56;4977854;28;20034;-63
2024/01/04 07:33:48;;;;;;;7.78;2.50;;;;;;;7.88;100.00;99708.16;4973667;28;20108;-62
2024/01/04 07:36:14;;;;;;;4.97;2.50;;;;;;;7.90;100.00;99719.28;4975499;28;20524;-62
2024/01/04 07:38:40;;;;;;;7.45;3.03;;;;;;;7.92;100.00;99716.69;4977367;28;20517;-63
2024/01/04 07:41:05;;;;;;;6.03;2.80;;;;;;;7.96;100.00;99726.03;4977076;28;20026;-63
2024/01/04 07:43:30;;;;;;;4.30;2.60;;;;;;;7.97;100.00;99722.59;4974623;28;20053;-59
2024/01/04 07:45:56;;;;;;;7.13;2.55;;;;;;;7.98;100.00;99730.28;4984130;28;20514;-59
2024/01/04 07:48:21;;;;;;;5.47;2.35;;;;;;;7.98;100.00;99725.16;4980988;28;20617;-59
2024/01/04 07:50:47;;;;;;;4.60;2.35;;;;;;;7.96;100.00;99726.03;4985780;28;20041;-61
2024/01/04 07:53:12;;;;;;;3.75;2.63;;;;;;;7.95;100.00;99732.91;4989382;28;20448;-61
2024/01/04 07:55:38;;;;;;;4.40;2.10;;;;;;;7.97;100.00;99738.06;4985893;28;20049;-61
2024/01/04 07:58:03;;;;;;;5.70;2.95;;;;;;;7.97;100.00;99738.06;4978004;28;20070;-62
2024/01/04 08:00:30;;;;;;;5.90;2.70;;;;;;;7.99;100.00;99739.72;4978912;28;20113;-61
2024/01/04 08:02:55;;;;;;;5.25;2.78;;;;;;;7.98;100.00;99734.63;4987200;28;20058;-61
2024/01/04 08:05:20;;;;;;;5.70;3.67;;;;;;;7.97;100.00;99735.47;4981009;28;20118;-61
2024/01/04 08:07:46;;;;;;;4.78;3.05;;;;;;;8.00;100.00;99745.72;4989810;28;20084;-59
2024/01/04 08:10:11;;;;;;;7.22;3.25;;;;;;;8.05;100.00;99740.50;4982167;28;20145;-58
2024/01/04 08:12:40;;;;;;;5.47;3.13;;;;;;;8.08;100.00;99738.72;4976084;28;20038;-59
2024/01/04 08:15:08;;;;;;;6.30;2.92;;;;;;;8.10;100.00;99734.41;4979202;28;20039;-61
2024/01/04 08:17:33;;;;;;;9.55;3.33;;;;;;;8.14;100.00;99738.66;4976934;28;20772;-61
2024/01/04 08:19:59;;;;;;;8.73;3.25;;;;;;;8.15;100.00;99742.94;4975768;28;20042;-59
2024/01/04 08:22:25;;;;;;;6.55;3.00;;;;;;;8.17;100.00;99740.31;4975464;28;20829;-59
2024/01/04 08:24:50;;;;;;;4.97;2.25;;;;;;;8.22;100.00;99746.28;4974884;28;20077;-59
2024/01/04 08:27:18;;;;;;;6.28;2.28;;;;;;;8.23;100.00;99753.94;4975492;28;20042;-59
2024/01/04 08:29:48;;;;;;;5.28;2.60;;;;;;;8.25;100.00;99748.78;4975802;28;20035;-59
2024/01/04 08:32:17;;;;;;;5.50;2.60;;;;;;;8.25;100.00;99759.09;4979563;28;20035;-59
2024/01/04 08:34:42;;;;;;;5.57;2.70;;;;;;;8.29;100.00;99765.88;4969307;28;21309;-58
2024/01/04 08:37:08;;;;;;;7.53;2.72;;;;;;;8.30;100.00;99759.88;4971326;28;20049;-59
2024/01/04 08:39:33;;;;;;;9.23;2.63;;;;;;;8.30;100.00;99758.16;4978985;28;20811;-58
2024/01/04 08:41:59;;;;;;;7.40;2.47;;;;;;;8.30;100.00;99767.59;4977957;28;20600;-58
2024/01/04 08:44:25;;;;;;;8.65;2.78;;;;;;;8.35;100.00;99770.94;4982857;28;20034;-58
2024/01/04 08:46:52;;;;;;;7.03;2.38;;;;;;;8.38;100.00;99769.16;4969334;28;20544;-58
2024/01/04 08:49:18;;;;;;;5.20;1.92;;;;;;;8.42;100.00;99764.84;4980875;28;20531;-59
2024/01/04 08:51:43;;;;;;;3.95;1.60;;;;;;;8.40;100.00;99762.25;4975937;28;20050;-59
2024/01/04 08:54:08;;;;;;;5.25;1.95;;;;;;;8.46;100.00;99767.31;4978652;28;20042;-59
2024/01/04 08:56:35;;;;;;;6.25;1.58;;;;;;;8.49;100.00;99780.16;4979525;28;20045;-58
2024/01/04 08:59:02;;;;;;;4.05;1.48;;;;;;;8.53;100.00;99784.38;4979305;28;20752;-59
2024/01/04 09:01:28;;;;;;;4.45;1.65;;;;;;;8.58;100.00;99787.72;4978718;28;20042;-58
2024/01/04 09:03:53;;;;;;;2.38;1.30;;;;;;;8.62;100.00;99788.53;4985503;28;20064;-59
2024/01/04 09:06:18;;;;;;;7.53;1.77;;;;;;;8.69;100.00;99791.88;4984849;28;20049;-59
2024/01/04 09:08:44;;;;;;;4.50;1.50;;;;;;;8.74;100.00;99797.78;4975290;28;20093;-61
2024/01/04 09:11:09;;;;;;;3.90;1.55;;;;;;;8.79;100.00;99798.56;4986922;28;20034;-60
2024/01/04 09:13:35;;;;;;;5.35;1.08;;;;;;;8.82;100.00;99799.34;4978031;28;20070;-61
2024/01/04 09:16:00;;;;;;;4.05;1.40;;;;;;;8.89;100.00;99802.69;4978542;28;20082;-60
2024/01/04 09:18:26;;;;;;;4.72;1.35;;;;;;;8.95;100.00;99807.75;4977824;28;20037;-60
2024/01/04 09:20:51;;;;;;;4.47;1.27;;;;;;;9.04;100.00;99803.28;4976311;28;20034;-60
2024/01/04 09:23:16;;;;;;;2.97;1.08;;;;;;;9.18;100.00;99810.75;4975241;28;20031;-60
2024/01/04 09:25:42;;;;;;;4.68;1.30;;;;;;;9.32;100.00;99811.34;4966254;28;20536;-58
2024/01/04 09:28:07;;;;;;;5.32;1.88;;;;;;;9.38;100.00;99808.66;4976194;28;20034;-58
2024/01/04 09:30:32;;;;;;;1.90;1.05;;;;;;;9.47;100.00;99811.06;4969168;28;20041;-60
2024/01/04 09:32:58;;;;;;;3.53;0.95;;;;;;;9.50;100.00;99815.31;4975546;28;20177;-60
2024/01/04 09:35:24;;;;;;;4.95;1.30;;;;;;;9.49;100.00;99817.06;4984015;28;20042;-60
2024/01/04 09:37:52;;;;;;;2.35;1.08;;;;;;;9.49;100.00;99814.50;4979063;28;20117;-62
2024/01/04 09:40:20;;;;;;;3.35;1.30;;;;;;;9.47;100.00;99823.09;4974533;28;20473;-63
2024/01/04 09:42:48;;;;;;;1.33;0.73;;;;;;;9.47;100.00;99828.25;4977656;28;20133;-63
2024/01/04 09:45:18;;;;;;;5.38;1.00;;;;;;;9.49;100.00;99827.38;4977505;28;20034;-60
2024/01/04 09:47:45;;;;;;;2.53;0.95;;;;;;;9.51;100.00;99835.06;4973206;28;20152;-60
2024/01/04 09:50:13;;;;;;;1.95;0.73;;;;;;;9.56;100.00;99838.41;4975665;28;20113;-60
2024/01/04 09:52:39;;;;;;;2.28;1.00;;;;;;;9.57;100.00;99830.69;4976263;28;20161;-60
2024/01/04 09:55:07;;;;;;;4.82;1.10;;;;;;;9.59;100.00;99840.97;4980314;28;20037;-60
2024/01/04 09:57:33;;;;;;;2.63;1.42;;;;;;;9.61;100.00;99841.81;4974581;28;20484;-60
2024/01/04 09:59:59;;;;;;;3.15;1.00;;;;;;;9.72;100.00;99839.00;4975264;28;20042;-60
2024/01/04 10:02:25;;;;;;;4.53;1.08;;;;;;;9.70;100.00;99840.78;4978191;28;20038;-60
2024/01/04 10:04:51;;;;;;;2.30;0.98;;;;;;;9.81;100.00;99842.25;4973764;28;20448;-60
2024/01/04 10:07:22;;;;;;;2.90;1.10;;;;;;;9.90;100.00;99848.97;4972034;28;20046;-60
2024/01/04 10:10:15;;;;;;;3.25;1.00;;;;;;;10.02;100.00;99851.31;4973865;28;20141;-60
2024/01/04 10:12:42;;;;;;;2.53;0.98;;;;;;;9.99;100.00;99864.28;4973174;28;20108;-60
2024/01/04 10:15:11;;;;;;;3.97;1.40;;;;;;;9.88;100.00;99854.13;4977889;28;20053;-60
2024/01/04 10:17:37;;;;;;;5.22;1.33;;;;;;;9.85;100.00;99859.38;4982744;28;20037;-60
2024/01/04 10:20:04;;;;;;;3.70;1.20;;;;;;;9.85;100.00;99854.19;4983037;28;20025;-60
2024/01/04 10:22:29;;;;;;;2.67;1.10;;;;;;;9.78;100.00;99855.22;4971821;28;20877;-60
2024/01/04 10:25:09;;;;;;;4.82;1.20;;;;;;;9.70;100.00;99867.44;4980004;28;20092;-60
2024/01/04 10:27:34;;;;;;;3.85;1.10;;;;;;;9.66;100.00;99843.41;4974499;28;20043;-61
2024/01/04 10:30:06;;;;;;;3.42;1.17;;;;;;;9.70;100.00;99851.09;4978027;28;20050;-58
2024/01/04 10:32:32;;;;;;;6.40;1.20;;;;;;;9.77;100.00;99850.94;4975053;28;20038;-58
2024/01/04 10:35:08;;;;;;;6.78;0.98;;;;;;;9.82;100.00;99848.28;4977281;28;20047;-58
2024/01/04 10:37:35;;;;;;;4.30;0.80;;;;;;;9.86;99.18;99857.63;4974211;28;20034;-59
2024/01/04 10:40:05;;;;;;;2.95;1.05;;;;;;;9.90;100.00;99854.97;4967817;28;20051;-58
2024/01/04 10:42:34;;;;;;;2.72;1.05;;;;;;;9.87;98.58;99852.47;4981670;28;20038;-58
2024/01/04 10:44:59;;;;;;;3.55;0.93;;;;;;;9.86;99.28;99861.06;4987957;28;20038;-60
2024/01/04 10:47:25;;;;;;;0.95;0.50;;;;;;;9.90;98.68;99867.03;4975211;28;20098;-61
2024/01/04 10:49:59;;;;;;;1.42;0.70;;;;;;;9.93;97.15;99854.94;4981465;28;20759;-60
2024/01/04 10:52:30;;;;;;;1.50;0.73;;;;;;;10.03;96.61;99865.91;4978845;28;20089;-60
2024/01/04 10:54:58;;;;;;;4.53;0.90;;;;;;;10.12;96.17;99863.97;4984332;28;20049;-60
2024/01/04 10:57:25;;;;;;;2.53;0.80;;;;;;;10.18;96.36;99876.75;4977371;28;20220;-63
2024/01/04 10:59:51;;;;;;;2.75;0.80;;;;;;;10.27;95.82;99869.72;4975832;28;20026;-63
2024/01/04 11:02:18;;;;;;;6.43;1.02;;;;;;;10.30;94.34;99870.47;4970083;28;20077;-62
2024/01/04 11:04:44;;;;;;;4.95;1.20;;;;;;;10.33;93.40;99861.84;4980107;28;20077;-63
2024/01/04 11:07:14;;;;;;;2.28;1.00;;;;;;;10.30;92.94;99867.06;4968646;28;20034;-61
2024/01/04 11:09:40;;;;;;;3.50;1.05;;;;;;;10.22;92.44;99868.06;4978870;28;20424;-60
2024/01/04 11:12:07;;;;;;;4.32;1.08;;;;;;;10.22;93.82;99895.63;4977770;28;20109;-61
2024/01/04 11:14:32;;;;;;;6.57;1.30;;;;;;;10.12;93.35;99876.03;4984097;28;20054;-59
2024/01/04 11:17:30;;;;;;;8.07;1.23;;;;;;;10.09;93.42;99874.38;4977578;28;20181;-59
2024/01/04 11:20:01;;;;;;;3.30;1.30;;;;;;;10.16;93.14;99870.78;4978272;28;20042;-60
2024/01/04 11:22:57;;;;;;;2.60;1.00;;;;;;;10.20;91.87;99862.09;4980820;28;20038;-60
2024/01/04 11:25:56;;;;;;;3.72;1.17;;;;;;;10.38;92.58;99872.91;4980499;28;20046;-60
2024/01/04 11:28:23;;;;;;;3.17;0.90;;;;;;;10.39;90.94;99844.44;4987152;28;20045;-60
2024/01/04 11:30:53;;;;;;;5.95;1.23;;;;;;;10.48;91.75;99854.56;4984589;28;20046;-60